createdAt,value
2019-05-02T00:00:18.074Z,27.67
2019-05-02T00:02:51.870Z,29.10
2019-05-02T00:05:27.322Z,28.53
2019-05-02T00:07:58.455Z,29.07
2019-05-02T00:10:30.988Z,30.47
2019-05-02T00:13:03.267Z,29.80
2019-05-02T00:15:38.251Z,30.00
2019-05-02T00:18:10.468Z,30.57
2019-05-02T00:20:42.695Z,31.80
2019-05-02T00:23:14.919Z,31.87
2019-05-02T00:25:52.320Z,34.77
2019-05-02T00:28:21.159Z,31.43
2019-05-02T00:30:53.559Z,32.70
2019-05-02T00:33:29.241Z,33.23
2019-05-02T00:36:00.053Z,35.20
2019-05-02T00:38:33.354Z,33.03
2019-05-02T00:41:06.365Z,33.93
2019-05-02T00:43:38.628Z,35.10
2019-05-02T00:46:10.856Z,34.07
2019-05-02T00:48:43.193Z,34.70
2019-05-02T00:51:15.448Z,34.83
2019-05-02T00:53:48.354Z,34.67
2019-05-02T00:56:22.106Z,36.23
2019-05-02T00:58:54.509Z,35.77
2019-05-02T01:01:29.510Z,34.13
2019-05-02T01:04:00.849Z,34.57
2019-05-02T01:06:35.134Z,34.50
2019-05-02T01:09:11.010Z,33.10
2019-05-02T01:11:41.836Z,32.10
2019-05-02T01:14:14.141Z,32.53
2019-05-02T01:16:49.523Z,33.30
2019-05-02T01:19:21.749Z,30.63
2019-05-02T01:21:55.098Z,31.83
2019-05-02T01:24:27.369Z,30.40
2019-05-02T01:27:04.585Z,32.17
2019-05-02T01:29:35.641Z,31.10
2019-05-02T01:32:07.894Z,31.87
2019-05-02T01:34:40.237Z,31.60
2019-05-02T01:37:20.367Z,33.60
2019-05-02T01:39:46.436Z,32.37
2019-05-02T01:42:18.700Z,32.63
2019-05-02T01:44:50.991Z,34.03
2019-05-02T01:47:23.248Z,31.40
2019-05-02T01:49:57.171Z,31.87
2019-05-02T01:52:29.594Z,32.67
2019-05-02T01:55:01.879Z,32.13
2019-05-02T01:57:34.102Z,32.53
2019-05-02T02:00:09.544Z,31.07
2019-05-02T02:02:41.298Z,32.50
2019-05-02T02:05:13.626Z,33.27
2019-05-02T02:07:45.863Z,34.37
2019-05-02T02:10:19.758Z,36.23
2019-05-02T02:13:03.573Z,40.37
2019-05-02T02:15:29.019Z,40.37
2019-05-02T02:18:02.184Z,42.53
2019-05-02T02:20:34.452Z,46.10
2019-05-02T02:23:10.235Z,41.57
2019-05-02T02:25:40.739Z,43.67
2019-05-02T02:28:13.006Z,44.67
2019-05-02T02:30:45.265Z,43.53
2019-05-02T02:33:17.667Z,45.20
2019-05-02T02:35:51.987Z,44.10
2019-05-02T02:38:26.802Z,46.10
2019-05-02T02:40:58.335Z,46.77
2019-05-02T02:43:34.604Z,43.07
2019-05-02T02:46:04.610Z,44.17
2019-05-02T02:48:40.552Z,43.53
2019-05-02T02:51:22.038Z,44.13
2019-05-02T02:53:45.028Z,44.60
2019-05-02T02:56:17.334Z,44.27
2019-05-02T02:58:49.607Z,45.63
2019-05-02T03:01:28.699Z,42.73
2019-05-02T03:04:02.004Z,45.37
2019-05-02T03:06:29.764Z,48.93
2019-05-02T03:09:02.014Z,46.40
2019-05-02T03:11:35.860Z,44.27
2019-05-02T03:14:09.726Z,46.03
2019-05-02T03:16:47.478Z,45.37
2019-05-02T03:19:21.491Z,46.50
2019-05-02T03:21:54.424Z,44.67
2019-05-02T03:24:23.945Z,47.10
2019-05-02T03:26:58.486Z,47.27
2019-05-02T03:29:41.496Z,48.23
2019-05-02T03:32:14.951Z,47.03
2019-05-02T03:34:47.470Z,46.30
2019-05-02T03:37:13.917Z,49.17
2019-05-02T03:39:49.317Z,48.90
2019-05-02T03:42:20.353Z,51.60
2019-05-02T03:44:56.237Z,51.20
2019-05-02T03:47:27.798Z,51.40
2019-05-02T03:50:00.038Z,52.57
2019-05-02T03:52:36.553Z,50.43
2019-05-02T03:55:06.184Z,52.97
2019-05-02T03:57:41.891Z,52.60
2019-05-02T04:00:20.205Z,55.27
2019-05-02T04:02:46.429Z,57.80
2019-05-02T04:05:18.785Z,53.70
2019-05-02T04:07:50.999Z,59.37
2019-05-02T04:10:23.224Z,59.13
2019-05-02T04:12:58.365Z,58.63
2019-05-02T04:15:35.092Z,56.07
2019-05-02T04:18:08.347Z,58.60
2019-05-02T04:20:37.456Z,58.60
2019-05-02T04:23:09.722Z,63.60
2019-05-02T04:25:41.950Z,64.37
2019-05-02T04:28:14.458Z,68.43
2019-05-02T04:30:51.155Z,68.80
2019-05-02T04:33:20.887Z,65.97
2019-05-02T04:35:58.868Z,67.03
2019-05-02T04:38:39.263Z,66.80
2019-05-02T04:41:04.227Z,66.27
2019-05-02T04:43:43.100Z,65.87
2019-05-02T04:46:18.021Z,67.93
2019-05-02T04:48:48.924Z,66.53
2019-05-02T04:51:20.900Z,65.27
2019-05-02T04:53:53.167Z,63.40
2019-05-02T04:56:28.220Z,60.33
2019-05-02T04:59:01.977Z,61.93
2019-05-02T05:01:43.475Z,62.07
2019-05-02T05:04:08.296Z,61.10
2019-05-02T05:06:52.510Z,57.53
2019-05-02T05:09:18.080Z,57.30
2019-05-02T05:11:53.914Z,57.87
2019-05-02T05:14:25.025Z,55.80
2019-05-02T05:16:57.993Z,57.50
2019-05-02T05:19:32.784Z,56.97
2019-05-02T05:22:06.297Z,56.93
2019-05-02T05:24:42.180Z,56.50
2019-05-02T05:27:13.351Z,58.40
2019-05-02T05:29:48.643Z,58.33
2019-05-02T05:32:20.674Z,61.07
2019-05-02T05:34:52.963Z,60.00
2019-05-02T05:37:27.315Z,60.50
2019-05-02T05:40:00.429Z,56.53
2019-05-02T05:42:33.481Z,59.00
2019-05-02T05:45:09.670Z,56.87
2019-05-02T05:47:40.203Z,59.97
2019-05-02T05:50:12.557Z,59.90
2019-05-02T05:52:44.785Z,58.47
2019-05-02T05:55:20.533Z,57.90
2019-05-02T05:57:59.935Z,57.20
2019-05-02T06:00:25.131Z,58.23
2019-05-02T06:03:10.289Z,58.40
2019-05-02T06:05:33.138Z,59.47
2019-05-02T06:08:05.598Z,58.80
2019-05-02T06:10:39.034Z,59.27
2019-05-02T06:13:12.982Z,60.47
2019-05-02T06:15:46.051Z,60.70
2019-05-02T06:18:18.381Z,59.33
2019-05-02T06:20:50.651Z,58.43
2019-05-02T06:23:22.885Z,56.63
2019-05-02T06:25:55.116Z,55.60
2019-05-02T06:28:27.475Z,52.97
2019-05-02T06:31:02.161Z,56.33
2019-05-02T06:33:34.362Z,53.10
2019-05-02T06:36:06.612Z,53.93
2019-05-02T06:38:38.868Z,53.70
2019-05-02T06:41:11.114Z,53.27
2019-05-02T06:43:46.505Z,53.67
2019-05-02T06:46:21.958Z,52.40
2019-05-02T06:48:52.502Z,54.93
2019-05-02T06:51:25.872Z,54.17
2019-05-02T06:53:58.133Z,50.93
2019-05-02T06:56:30.426Z,52.60
2019-05-02T06:59:04.775Z,51.67
2019-05-02T07:01:38.172Z,52.07
2019-05-02T07:04:10.489Z,51.80
2019-05-02T07:06:57.576Z,51.20
2019-05-02T07:09:17.090Z,51.33
2019-05-02T07:11:56.966Z,52.83
2019-05-02T07:14:25.469Z,50.23
2019-05-02T07:16:57.680Z,48.97
2019-05-02T07:19:32.169Z,47.80
2019-05-02T07:22:04.649Z,47.00
2019-05-02T07:24:37.081Z,46.80
2019-05-02T07:27:09.482Z,45.47
2019-05-02T07:29:41.839Z,46.53
2019-05-02T07:32:14.153Z,46.70
2019-05-02T07:34:48.148Z,45.03
2019-05-02T07:37:20.443Z,45.87
2019-05-02T07:39:53.082Z,45.67
2019-05-02T07:42:25.438Z,47.17
2019-05-02T07:44:57.915Z,47.50
2019-05-02T07:47:34.548Z,48.60
2019-05-02T07:50:05.411Z,47.37
2019-05-02T07:52:41.087Z,45.00
2019-05-02T07:55:13.039Z,43.37
2019-05-02T07:57:45.524Z,41.77
2019-05-02T08:00:17.986Z,43.03
2019-05-02T08:02:50.298Z,44.00
2019-05-02T08:05:23.905Z,45.00
2019-05-02T08:07:56.828Z,45.30
2019-05-02T08:10:29.108Z,42.03
2019-05-02T08:13:01.364Z,42.13
2019-05-02T08:15:33.664Z,42.50
2019-05-02T08:18:05.984Z,43.53
2019-05-02T08:20:38.244Z,45.43
2019-05-02T08:23:13.431Z,45.60
2019-05-02T08:25:46.563Z,45.93
2019-05-02T08:28:19.057Z,45.07
2019-05-02T08:30:51.289Z,44.87
2019-05-02T08:33:29.508Z,45.17
2019-05-02T08:35:59.677Z,43.47
2019-05-02T08:38:32.712Z,46.73
2019-05-02T08:41:05.160Z,47.47
2019-05-02T08:43:40.266Z,45.80
2019-05-02T08:46:14.466Z,44.87
2019-05-02T08:48:50.560Z,48.80
2019-05-02T08:51:21.778Z,48.50
2019-05-02T08:53:56.723Z,49.23
2019-05-02T08:56:28.315Z,49.27
2019-05-02T08:59:00.660Z,51.37
2019-05-02T09:01:35.236Z,46.73
2019-05-02T09:04:06.953Z,50.30
2019-05-02T09:06:39.280Z,49.47
2019-05-02T09:09:11.534Z,49.60
2019-05-02T09:11:48.782Z,46.90
2019-05-02T09:14:17.897Z,47.73
2019-05-02T09:16:52.227Z,48.07
2019-05-02T09:19:26.482Z,46.97
2019-05-02T09:21:58.432Z,47.17
2019-05-02T09:24:32.580Z,47.47
2019-05-02T09:27:04.753Z,43.47
2019-05-02T09:29:37.307Z,48.97
2019-05-02T09:32:12.535Z,48.60
2019-05-02T09:34:45.094Z,49.80
2019-05-02T09:37:17.523Z,49.37
2019-05-02T09:39:49.859Z,50.57
2019-05-02T09:42:22.162Z,52.43
2019-05-02T09:44:56.884Z,54.70
2019-05-02T09:47:35.243Z,56.17
2019-05-02T09:50:02.873Z,56.17
2019-05-02T09:52:39.660Z,58.50
2019-05-02T09:55:12.146Z,58.13
2019-05-02T09:57:44.592Z,57.93
2019-05-02T10:00:16.883Z,60.37
2019-05-02T10:02:49.165Z,63.20
2019-05-02T10:05:23.029Z,60.97
2019-05-02T10:08:03.082Z,61.37
2019-05-02T10:10:32.363Z,64.03
2019-05-02T10:13:04.964Z,62.60
2019-05-02T10:15:37.213Z,62.03
2019-05-02T10:18:12.026Z,64.67
2019-05-02T10:20:43.900Z,64.70
2019-05-02T10:23:19.499Z,61.60
2019-05-02T10:25:52.095Z,63.10
2019-05-02T10:28:24.490Z,61.67
2019-05-02T10:30:56.954Z,62.97
2019-05-02T10:33:33.564Z,64.17
2019-05-02T10:36:03.181Z,65.57
2019-05-02T10:38:35.480Z,60.33
2019-05-02T10:41:07.737Z,62.83
2019-05-02T10:43:39.944Z,63.37
2019-05-02T10:46:14.099Z,65.43
2019-05-02T10:48:46.565Z,68.27
2019-05-02T10:51:19.017Z,65.40
2019-05-02T10:53:52.675Z,68.30
2019-05-02T10:56:25.408Z,69.77
2019-05-02T10:58:57.541Z,77.60
2019-05-02T11:01:29.857Z,72.93
2019-05-02T11:04:02.198Z,71.93
2019-05-02T11:06:37.241Z,81.33
2019-05-02T11:09:08.532Z,74.23
2019-05-02T11:11:42.530Z,75.27
2019-05-02T11:14:15.200Z,77.67
2019-05-02T11:16:47.524Z,69.63
2019-05-02T11:19:21.385Z,68.47
2019-05-02T11:21:58.842Z,67.50
2019-05-02T11:24:27.697Z,64.00
2019-05-02T11:27:02.096Z,69.23
2019-05-02T11:29:34.241Z,73.73
2019-05-02T11:32:06.364Z,65.70
2019-05-02T11:34:38.720Z,56.37
2019-05-02T11:37:12.160Z,70.10
2019-05-02T11:39:50.297Z,66.73
2019-05-02T11:42:23.237Z,64.53
2019-05-02T11:44:52.690Z,56.73
2019-05-02T11:47:26.603Z,64.07
2019-05-02T11:49:59.258Z,63.83
2019-05-02T11:52:32.979Z,51.57
2019-05-02T11:55:05.547Z,52.43
2019-05-02T11:57:37.944Z,48.60
2019-05-02T12:00:12.238Z,45.07
2019-05-02T12:02:44.147Z,45.20
2019-05-02T12:05:16.390Z,46.80
2019-05-02T12:07:48.669Z,43.27
2019-05-02T12:10:21.629Z,45.23
2019-05-02T12:12:54.003Z,41.90
2019-05-02T12:15:26.271Z,37.27
2019-05-02T12:17:58.566Z,40.97
2019-05-02T12:20:35.278Z,49.63
2019-05-02T12:23:04.804Z,47.40
2019-05-02T12:25:37.076Z,47.87
2019-05-02T12:28:09.359Z,39.77
2019-05-02T12:30:42.179Z,41.17
2019-05-02T12:33:14.514Z,37.77
2019-05-02T12:35:46.832Z,37.93
2019-05-02T12:38:19.050Z,37.77
2019-05-02T12:40:52.249Z,36.83
2019-05-02T12:43:24.815Z,33.27
2019-05-02T12:45:57.140Z,30.73
2019-05-02T12:48:29.672Z,31.27
2019-05-02T12:51:03.148Z,31.33
2019-05-02T12:53:35.534Z,31.63
2019-05-02T12:56:07.960Z,28.07
2019-05-02T12:58:42.119Z,28.77
2019-05-02T13:01:15.165Z,25.83
2019-05-02T13:03:49.446Z,24.87
2019-05-02T13:06:22.324Z,24.50
2019-05-02T13:08:54.636Z,25.90
2019-05-02T13:11:27.145Z,24.13
2019-05-02T13:14:02.199Z,21.10
2019-05-02T13:16:34.486Z,17.83
2019-05-02T13:19:06.767Z,16.90
2019-05-02T13:21:42.521Z,17.17
2019-05-02T13:24:16.425Z,15.67
2019-05-02T13:26:52.045Z,16.93
2019-05-02T13:29:22.656Z,19.30
2019-05-02T13:31:54.984Z,19.40
2019-05-02T13:34:27.480Z,20.27
2019-05-02T13:36:59.778Z,19.77
2019-05-02T13:39:32.634Z,27.13
2019-05-02T13:42:05.237Z,36.03
2019-05-02T13:44:37.464Z,40.30
2019-05-02T13:47:12.242Z,40.37
2019-05-02T13:49:53.807Z,41.87
2019-05-02T13:52:20.139Z,37.37
2019-05-02T13:54:52.398Z,39.20
2019-05-02T13:57:24.601Z,38.17
2019-05-02T13:59:57.267Z,39.10
2019-05-02T14:02:31.640Z,39.73
2019-05-02T14:05:03.547Z,36.97
2019-05-02T14:07:36.836Z,36.93
2019-05-02T14:10:11.874Z,36.70
2019-05-02T14:12:44.233Z,34.90
2019-05-02T14:15:16.616Z,35.10
2019-05-02T14:17:49.235Z,33.30
2019-05-02T14:20:22.399Z,29.30
2019-05-02T14:22:54.928Z,28.90
2019-05-02T14:25:27.337Z,27.53
2019-05-02T14:27:59.588Z,24.67
2019-05-02T14:30:39.903Z,23.43
2019-05-02T14:33:05.780Z,23.67
2019-05-02T14:35:37.991Z,23.30
2019-05-02T14:38:10.285Z,23.70
2019-05-02T14:40:42.574Z,24.17
2019-05-02T14:43:14.814Z,24.80
2019-05-02T14:45:50.916Z,24.90
2019-05-02T14:48:22.231Z,26.80
2019-05-02T14:50:54.903Z,28.73
2019-05-02T14:53:27.435Z,27.67
2019-05-02T14:56:04.391Z,29.50
2019-05-02T14:58:37.748Z,31.57
2019-05-02T15:01:08.949Z,35.07
2019-05-02T15:03:42.347Z,35.17
2019-05-02T15:06:14.659Z,33.47
2019-05-02T15:08:49.018Z,32.53
2019-05-02T15:11:30.347Z,24.90
2019-05-02T15:13:55.242Z,26.57
2019-05-02T15:16:39.556Z,26.03
2019-05-02T15:19:02.160Z,22.90
2019-05-02T15:21:34.508Z,18.03
2019-05-02T15:24:06.777Z,17.70
2019-05-02T15:26:39.012Z,14.90
2019-05-02T15:29:18.826Z,12.03
2019-05-02T15:31:45.396Z,11.60
2019-05-02T15:34:17.619Z,10.67
2019-05-02T15:36:49.863Z,11.67
2019-05-02T15:41:56.071Z,11.30
2019-05-02T15:44:28.306Z,10.47
2019-05-02T15:47:05.168Z,8.57
2019-05-02T15:49:36.701Z,7.00
2019-05-02T15:52:08.524Z,6.00
2019-05-02T15:54:42.524Z,6.50
2019-05-02T15:57:18.948Z,6.90
2019-05-02T15:59:49.249Z,5.63
2019-05-02T16:02:22.899Z,5.40
2019-05-02T16:04:57.014Z,4.40
2019-05-02T16:07:29.528Z,5.20
2019-05-02T16:10:03.852Z,4.03
2019-05-02T16:12:36.200Z,3.60
2019-05-02T16:15:13.424Z,4.10
2019-05-02T16:17:42.522Z,4.03
2019-05-02T16:20:16.154Z,3.60
2019-05-02T16:22:49.945Z,3.40
2019-05-02T16:25:24.525Z,3.53
2019-05-02T16:28:02.102Z,3.60
2019-05-02T16:30:31.917Z,4.10
2019-05-02T16:33:08.552Z,4.20
2019-05-02T16:35:38.689Z,3.60
2019-05-02T16:38:12.297Z,3.13
2019-05-02T16:40:46.702Z,3.20
2019-05-02T16:43:18.994Z,2.83
2019-05-02T16:45:52.613Z,2.73
2019-05-02T16:48:24.960Z,2.90
2019-05-02T16:50:57.239Z,3.30
2019-05-02T16:53:31.034Z,3.50
2019-05-02T16:56:07.050Z,3.07
2019-05-02T16:58:37.995Z,2.53
2019-05-02T17:01:14.899Z,2.97
2019-05-02T17:03:46.177Z,2.70
2019-05-02T17:06:22.399Z,2.70
2019-05-02T17:08:57.205Z,2.80
2019-05-02T17:11:27.760Z,2.80
2019-05-02T17:14:02.321Z,2.83
2019-05-02T17:16:34.552Z,2.43
2019-05-02T17:19:08.443Z,2.27
2019-05-02T17:21:53.180Z,2.40
2019-05-02T17:24:17.434Z,2.27
2019-05-02T17:26:48.850Z,2.60
2019-05-02T17:29:22.657Z,2.10
2019-05-02T17:31:59.136Z,1.97
2019-05-02T17:34:30.651Z,3.10
2019-05-02T17:37:04.884Z,2.10
2019-05-02T17:39:42.681Z,2.33
2019-05-02T17:42:17.102Z,2.13
2019-05-02T17:44:47.583Z,2.00
2019-05-02T17:47:19.831Z,2.43
2019-05-02T17:49:52.918Z,3.10
2019-05-02T17:52:26.979Z,2.07
2019-05-02T17:55:01.782Z,2.50
2019-05-02T17:57:34.772Z,2.40
2019-05-02T18:00:07.667Z,2.23
2019-05-02T18:02:42.370Z,2.07
2019-05-02T18:05:14.693Z,2.37
2019-05-02T18:07:47.144Z,2.57
2019-05-02T18:10:23.046Z,2.40
2019-05-02T18:12:58.517Z,3.03
2019-05-02T18:15:29.847Z,2.80
2019-05-02T18:18:06.411Z,2.40
2019-05-02T18:20:42.716Z,2.40
2019-05-02T18:23:12.730Z,2.47
2019-05-02T18:25:45.031Z,2.83
2019-05-02T18:28:24.590Z,2.87
2019-05-02T18:30:52.461Z,3.07
2019-05-02T18:33:24.780Z,2.70
2019-05-02T18:35:56.979Z,3.13
2019-05-02T18:38:29.222Z,2.90
2019-05-02T18:41:06.178Z,2.97
2019-05-02T18:43:40.512Z,3.00
2019-05-02T18:46:09.928Z,3.10
2019-05-02T18:48:46.831Z,3.20
2019-05-02T18:51:18.905Z,2.90
2019-05-02T18:53:52.872Z,2.77
2019-05-02T18:56:24.623Z,2.87
2019-05-02T18:58:56.958Z,3.70
2019-05-02T19:01:29.454Z,3.10
2019-05-02T19:04:02.480Z,3.17
2019-05-02T19:06:36.208Z,3.73
2019-05-02T19:09:08.580Z,3.13
2019-05-02T19:11:42.402Z,2.70
2019-05-02T19:14:16.597Z,3.17
2019-05-02T19:16:51.968Z,2.90
2019-05-02T19:19:27.432Z,2.53
2019-05-02T19:21:57.730Z,2.77
2019-05-02T19:24:34.962Z,2.60
2019-05-02T19:27:03.863Z,2.83
2019-05-02T19:29:36.109Z,2.87
2019-05-02T19:32:08.379Z,3.27
2019-05-02T19:34:41.793Z,3.23
2019-05-02T19:37:14.323Z,3.53
2019-05-02T19:39:48.814Z,3.70
2019-05-02T19:42:22.639Z,3.80
2019-05-02T19:44:54.724Z,3.40
2019-05-02T19:47:27.171Z,3.60
2019-05-02T19:49:59.414Z,3.23
2019-05-02T19:52:38.784Z,3.57
2019-05-02T19:55:05.838Z,3.07
2019-05-02T19:57:41.703Z,3.67
2019-05-02T20:00:13.923Z,3.30
2019-05-02T20:02:46.324Z,3.57
2019-05-02T20:05:24.096Z,3.20
2019-05-02T20:07:52.631Z,3.10
2019-05-02T20:10:26.309Z,3.27
2019-05-02T20:12:58.838Z,3.60
2019-05-02T20:15:32.810Z,3.50
2019-05-02T20:18:05.283Z,3.83
2019-05-02T20:20:40.546Z,3.87
2019-05-02T20:23:17.974Z,4.20
2019-05-02T20:25:46.609Z,3.40
2019-05-02T20:28:18.887Z,4.47
2019-05-02T20:30:52.648Z,3.90
2019-05-02T20:33:25.175Z,4.03
2019-05-02T20:35:57.393Z,3.53
2019-05-02T20:38:29.926Z,4.33
2019-05-02T20:41:02.998Z,3.30
2019-05-02T20:43:35.348Z,4.23
2019-05-02T20:46:07.643Z,4.03
2019-05-02T20:48:41.877Z,4.33
2019-05-02T20:51:14.289Z,4.83
2019-05-02T20:53:46.814Z,5.07
2019-05-02T20:56:20.324Z,4.43
2019-05-02T20:58:52.763Z,4.27
2019-05-02T21:01:25.278Z,4.67
2019-05-02T21:03:57.621Z,4.47
2019-05-02T21:06:40.796Z,4.50
2019-05-02T21:09:05.290Z,4.60
2019-05-02T21:11:37.961Z,4.77
2019-05-02T21:14:12.201Z,5.37
2019-05-02T21:16:44.307Z,4.77
2019-05-02T21:19:16.616Z,4.73
2019-05-02T21:21:48.987Z,5.17
2019-05-02T21:24:22.048Z,4.70
2019-05-02T21:26:54.549Z,5.40
2019-05-02T21:29:26.794Z,6.70
2019-05-02T21:31:59.039Z,3.90
2019-05-02T21:34:31.837Z,4.33
2019-05-02T21:37:05.174Z,4.67
2019-05-02T21:39:37.464Z,4.73
2019-05-02T21:42:09.729Z,4.20
2019-05-02T21:44:42.286Z,4.47
2019-05-02T21:47:14.644Z,4.37
2019-05-02T21:49:47.041Z,4.30
2019-05-02T21:52:19.411Z,5.13
2019-05-02T21:54:52.225Z,4.13
2019-05-02T21:57:24.581Z,5.50
2019-05-02T21:59:56.926Z,5.13
2019-05-02T22:02:29.371Z,4.90
2019-05-02T22:05:03.617Z,5.17
2019-05-02T22:07:36.182Z,5.27
2019-05-02T22:10:08.845Z,5.80
2019-05-02T22:12:42.262Z,5.73
2019-05-02T22:15:14.628Z,5.43
2019-05-02T22:17:47.121Z,5.30
2019-05-02T22:20:19.348Z,5.20
2019-05-02T22:22:52.071Z,5.93
2019-05-02T22:25:24.432Z,4.60
2019-05-02T22:27:56.722Z,5.13
2019-05-02T22:30:29.173Z,4.73
2019-05-02T22:33:02.836Z,4.60
2019-05-02T22:35:35.212Z,5.00
2019-05-02T22:38:07.516Z,4.23
2019-05-02T22:40:41.700Z,4.23
2019-05-02T22:43:13.735Z,4.37
2019-05-02T22:45:45.963Z,4.03
2019-05-02T22:48:18.220Z,4.20
2019-05-02T22:50:52.235Z,4.40
2019-05-02T22:53:24.832Z,4.70
2019-05-02T22:55:57.156Z,4.50
2019-05-02T22:58:29.605Z,3.60
2019-05-02T23:01:01.890Z,3.53
2019-05-02T23:03:35.296Z,3.60
2019-05-02T23:06:07.576Z,4.10
2019-05-02T23:08:43.320Z,4.23
2019-05-02T23:11:13.829Z,4.10
2019-05-02T23:13:46.088Z,4.13
2019-05-02T23:16:18.370Z,3.87
2019-05-02T23:18:52.037Z,4.60
2019-05-02T23:21:24.365Z,4.20
2019-05-02T23:23:56.659Z,4.50
2019-05-02T23:26:28.982Z,4.23
2019-05-02T23:29:02.324Z,4.73
2019-05-02T23:31:34.984Z,4.23
2019-05-02T23:34:07.217Z,4.37
2019-05-02T23:36:41.499Z,4.23
2019-05-02T23:39:13.486Z,3.80
2019-05-02T23:41:45.969Z,4.10
2019-05-02T23:44:18.233Z,4.13
2019-05-02T23:46:51.563Z,4.20
2019-05-02T23:49:23.961Z,4.27
2019-05-02T23:51:56.214Z,4.77
2019-05-02T23:54:28.470Z,4.77
2019-05-02T23:57:00.744Z,4.67
2019-05-02T23:59:32.987Z,4.23
